sensor_id;sensor_type;location;lat;lon;timestamp;P1;durP1;ratioP1;P2;durP2;ratioP2
13927;SDS011;7036;50.834;4.718;2022-08-25T00:00:26;2.27;;;1.70;;
13927;SDS011;7036;50.834;4.718;2022-08-25T00:02:53;2.27;;;1.80;;
13927;SDS011;7036;50.834;4.718;2022-08-25T00:05:19;2.10;;;1.73;;
13927;SDS011;7036;50.834;4.718;2022-08-25T00:07:46;1.80;;;1.70;;
13927;SDS011;7036;50.834;4.718;2022-08-25T00:10:13;1.80;;;1.57;;
13927;SDS011;7036;50.834;4.718;2022-08-25T00:12:40;1.40;;;1.30;;
13927;SDS011;7036;50.834;4.718;2022-08-25T00:15:08;2.43;;;1.60;;
13927;SDS011;7036;50.834;4.718;2022-08-25T00:17:34;1.93;;;1.60;;
13927;SDS011;7036;50.834;4.718;2022-08-25T00:20:02;3.40;;;2.00;;
13927;SDS011;7036;50.834;4.718;2022-08-25T00:22:29;1.70;;;1.60;;
13927;SDS011;7036;50.834;4.718;2022-08-25T00:24:55;1.67;;;1.57;;
13927;SDS011;7036;50.834;4.718;2022-08-25T00:27:23;2.13;;;1.67;;
13927;SDS011;7036;50.834;4.718;2022-08-25T00:29:50;2.00;;;1.80;;
13927;SDS011;7036;50.834;4.718;2022-08-25T00:32:17;1.70;;;1.60;;
13927;SDS011;7036;50.834;4.718;2022-08-25T00:34:44;4.07;;;1.60;;
13927;SDS011;7036;50.834;4.718;2022-08-25T00:37:11;1.27;;;1.17;;
13927;SDS011;7036;50.834;4.718;2022-08-25T00:39:38;1.63;;;1.53;;
13927;SDS011;7036;50.834;4.718;2022-08-25T00:42:05;2.10;;;1.80;;
13927;SDS011;7036;50.834;4.718;2022-08-25T00:44:33;2.00;;;1.80;;
13927;SDS011;7036;50.834;4.718;2022-08-25T00:47:00;3.07;;;1.83;;
13927;SDS011;7036;50.834;4.718;2022-08-25T00:49:31;1.90;;;1.80;;
13927;SDS011;7036;50.834;4.718;2022-08-25T00:54:44;2.00;;;1.80;;
13927;SDS011;7036;50.834;4.718;2022-08-25T00:57:09;1.73;;;1.50;;
13927;SDS011;7036;50.834;4.718;2022-08-25T00:59:35;1.70;;;1.40;;
13927;SDS011;7036;50.834;4.718;2022-08-25T01:02:03;3.13;;;1.60;;
13927;SDS011;7036;50.834;4.718;2022-08-25T01:04:30;1.70;;;1.57;;
13927;SDS011;7036;50.834;4.718;2022-08-25T01:06:56;1.97;;;1.87;;
13927;SDS011;7036;50.834;4.718;2022-08-25T01:09:24;1.70;;;1.60;;
13927;SDS011;7036;50.834;4.718;2022-08-25T01:11:51;1.70;;;1.60;;
13927;SDS011;7036;50.834;4.718;2022-08-25T01:14:18;1.90;;;1.80;;
13927;SDS011;7036;50.834;4.718;2022-08-25T01:16:45;2.23;;;1.70;;
13927;SDS011;7036;50.834;4.718;2022-08-25T01:19:12;2.03;;;1.70;;
13927;SDS011;7036;50.834;4.718;2022-08-25T01:21:40;2.00;;;1.90;;
13927;SDS011;7036;50.834;4.718;2022-08-25T01:24:09;1.77;;;1.67;;
13927;SDS011;7036;50.834;4.718;2022-08-25T01:26:35;2.37;;;2.13;;
13927;SDS011;7036;50.834;4.718;2022-08-25T01:29:04;2.00;;;1.90;;
13927;SDS011;7036;50.834;4.718;2022-08-25T01:31:47;2.20;;;1.77;;
13927;SDS011;7036;50.834;4.718;2022-08-25T01:34:14;2.47;;;1.97;;
13927;SDS011;7036;50.834;4.718;2022-08-25T01:36:41;3.13;;;1.50;;
13927;SDS011;7036;50.834;4.718;2022-08-25T01:39:08;2.67;;;1.73;;
13927;SDS011;7036;50.834;4.718;2022-08-25T01:41:45;1.90;;;1.80;;
13927;SDS011;7036;50.834;4.718;2022-08-25T01:44:10;2.67;;;1.57;;
13927;SDS011;7036;50.834;4.718;2022-08-25T01:46:36;2.80;;;1.83;;
13927;SDS011;7036;50.834;4.718;2022-08-25T01:49:04;2.00;;;1.83;;
13927;SDS011;7036;50.834;4.718;2022-08-25T01:51:38;2.27;;;2.07;;
13927;SDS011;7036;50.834;4.718;2022-08-25T01:54:04;2.13;;;1.70;;
13927;SDS011;7036;50.834;4.718;2022-08-25T01:56:31;2.53;;;1.90;;
13927;SDS011;7036;50.834;4.718;2022-08-25T01:58:57;3.17;;;1.50;;
13927;SDS011;7036;50.834;4.718;2022-08-25T02:01:24;2.73;;;1.60;;
13927;SDS011;7036;50.834;4.718;2022-08-25T02:03:52;2.20;;;1.87;;
13927;SDS011;7036;50.834;4.718;2022-08-25T02:06:21;2.73;;;1.70;;
13927;SDS011;7036;50.834;4.718;2022-08-25T02:08:48;1.80;;;1.70;;
13927;SDS011;7036;50.834;4.718;2022-08-25T02:11:12;2.03;;;1.80;;
13927;SDS011;7036;50.834;4.718;2022-08-25T02:13:40;1.57;;;1.47;;
13927;SDS011;7036;50.834;4.718;2022-08-25T02:16:06;1.87;;;1.60;;
13927;SDS011;7036;50.834;4.718;2022-08-25T02:18:33;1.83;;;1.73;;
13927;SDS011;7036;50.834;4.718;2022-08-25T02:20:59;2.97;;;1.80;;
13927;SDS011;7036;50.834;4.718;2022-08-25T02:23:27;2.13;;;1.90;;
13927;SDS011;7036;50.834;4.718;2022-08-25T02:25:54;2.47;;;1.57;;
13927;SDS011;7036;50.834;4.718;2022-08-25T02:28:20;2.07;;;1.80;;
13927;SDS011;7036;50.834;4.718;2022-08-25T02:30:47;2.10;;;1.80;;
13927;SDS011;7036;50.834;4.718;2022-08-25T02:33:14;1.83;;;1.70;;
13927;SDS011;7036;50.834;4.718;2022-08-25T02:35:41;2.20;;;1.77;;
13927;SDS011;7036;50.834;4.718;2022-08-25T02:38:08;2.17;;;1.80;;
13927;SDS011;7036;50.834;4.718;2022-08-25T02:40:35;2.10;;;1.80;;
13927;SDS011;7036;50.834;4.718;2022-08-25T02:43:03;2.23;;;1.90;;
13927;SDS011;7036;50.834;4.718;2022-08-25T02:45:30;2.73;;;2.30;;
13927;SDS011;7036;50.834;4.718;2022-08-25T02:47:57;2.10;;;1.90;;
13927;SDS011;7036;50.834;4.718;2022-08-25T02:50:24;2.63;;;2.00;;
13927;SDS011;7036;50.834;4.718;2022-08-25T02:52:52;1.80;;;1.70;;
13927;SDS011;7036;50.834;4.718;2022-08-25T02:55:18;2.40;;;2.20;;
13927;SDS011;7036;50.834;4.718;2022-08-25T02:57:45;1.73;;;1.63;;
13927;SDS011;7036;50.834;4.718;2022-08-25T03:00:13;1.83;;;1.70;;
13927;SDS011;7036;50.834;4.718;2022-08-25T03:02:40;2.30;;;2.10;;
13927;SDS011;7036;50.834;4.718;2022-08-25T03:05:08;2.47;;;2.27;;
13927;SDS011;7036;50.834;4.718;2022-08-25T03:07:34;1.87;;;1.77;;
13927;SDS011;7036;50.834;4.718;2022-08-25T03:10:05;2.23;;;2.10;;
13927;SDS011;7036;50.834;4.718;2022-08-25T03:12:30;1.80;;;1.70;;
13927;SDS011;7036;50.834;4.718;2022-08-25T03:14:57;2.40;;;2.20;;
13927;SDS011;7036;50.834;4.718;2022-08-25T03:17:24;1.83;;;1.73;;
13927;SDS011;7036;50.834;4.718;2022-08-25T03:19:51;2.10;;;1.90;;
13927;SDS011;7036;50.834;4.718;2022-08-25T03:22:18;2.50;;;1.87;;
13927;SDS011;7036;50.834;4.718;2022-08-25T03:24:45;2.10;;;1.90;;
13927;SDS011;7036;50.834;4.718;2022-08-25T03:27:12;2.30;;;2.07;;
13927;SDS011;7036;50.834;4.718;2022-08-25T03:29:39;2.07;;;1.70;;
13927;SDS011;7036;50.834;4.718;2022-08-25T03:32:06;3.97;;;2.07;;
13927;SDS011;7036;50.834;4.718;2022-08-25T03:34:33;2.40;;;2.20;;
13927;SDS011;7036;50.834;4.718;2022-08-25T03:37:00;2.20;;;1.90;;
13927;SDS011;7036;50.834;4.718;2022-08-25T03:39:27;2.10;;;1.70;;
13927;SDS011;7036;50.834;4.718;2022-08-25T03:41:55;2.53;;;2.03;;
13927;SDS011;7036;50.834;4.718;2022-08-25T03:44:21;2.03;;;1.93;;
13927;SDS011;7036;50.834;4.718;2022-08-25T03:46:50;1.73;;;1.60;;
13927;SDS011;7036;50.834;4.718;2022-08-25T03:49:17;1.93;;;1.83;;
13927;SDS011;7036;50.834;4.718;2022-08-25T03:51:44;1.77;;;1.67;;
13927;SDS011;7036;50.834;4.718;2022-08-25T03:54:10;2.07;;;1.80;;
13927;SDS011;7036;50.834;4.718;2022-08-25T03:56:37;3.83;;;1.90;;
13927;SDS011;7036;50.834;4.718;2022-08-25T03:59:03;1.73;;;1.63;;
13927;SDS011;7036;50.834;4.718;2022-08-25T04:01:30;2.03;;;1.63;;
13927;SDS011;7036;50.834;4.718;2022-08-25T04:03:58;1.70;;;1.60;;
13927;SDS011;7036;50.834;4.718;2022-08-25T04:06:25;1.87;;;1.77;;
13927;SDS011;7036;50.834;4.718;2022-08-25T04:08:52;3.63;;;1.77;;
13927;SDS011;7036;50.834;4.718;2022-08-25T04:11:21;1.80;;;1.70;;
13927;SDS011;7036;50.834;4.718;2022-08-25T04:13:46;1.97;;;1.87;;
13927;SDS011;7036;50.834;4.718;2022-08-25T04:16:14;1.97;;;1.83;;
13927;SDS011;7036;50.834;4.718;2022-08-25T04:18:40;2.00;;;1.90;;
13927;SDS011;7036;50.834;4.718;2022-08-25T04:21:07;2.53;;;2.27;;
13927;SDS011;7036;50.834;4.718;2022-08-25T04:23:34;1.97;;;1.83;;
13927;SDS011;7036;50.834;4.718;2022-08-25T04:26:13;2.10;;;1.90;;
13927;SDS011;7036;50.834;4.718;2022-08-25T04:28:42;1.97;;;1.63;;
13927;SDS011;7036;50.834;4.718;2022-08-25T04:31:08;1.50;;;1.40;;
13927;SDS011;7036;50.834;4.718;2022-08-25T04:33:35;1.97;;;1.80;;
13927;SDS011;7036;50.834;4.718;2022-08-25T04:36:03;2.10;;;1.90;;
13927;SDS011;7036;50.834;4.718;2022-08-25T04:38:29;1.77;;;1.67;;
13927;SDS011;7036;50.834;4.718;2022-08-25T04:40:58;2.00;;;1.90;;
13927;SDS011;7036;50.834;4.718;2022-08-25T04:43:23;2.47;;;1.87;;
13927;SDS011;7036;50.834;4.718;2022-08-25T04:45:50;1.63;;;1.53;;
13927;SDS011;7036;50.834;4.718;2022-08-25T04:48:17;2.03;;;1.90;;
13927;SDS011;7036;50.834;4.718;2022-08-25T04:50:44;2.17;;;1.90;;
13927;SDS011;7036;50.834;4.718;2022-08-25T04:53:10;1.80;;;1.70;;
13927;SDS011;7036;50.834;4.718;2022-08-25T04:55:44;2.03;;;1.93;;
13927;SDS011;7036;50.834;4.718;2022-08-25T04:58:12;2.47;;;1.60;;
13927;SDS011;7036;50.834;4.718;2022-08-25T05:00:39;2.33;;;2.13;;
13927;SDS011;7036;50.834;4.718;2022-08-25T05:03:05;1.90;;;1.80;;
13927;SDS011;7036;50.834;4.718;2022-08-25T05:05:34;2.17;;;1.83;;
13927;SDS011;7036;50.834;4.718;2022-08-25T05:07:59;2.10;;;1.90;;
13927;SDS011;7036;50.834;4.718;2022-08-25T05:10:26;3.93;;;2.37;;
13927;SDS011;7036;50.834;4.718;2022-08-25T05:12:53;1.80;;;1.70;;
13927;SDS011;7036;50.834;4.718;2022-08-25T05:15:20;2.27;;;1.80;;
13927;SDS011;7036;50.834;4.718;2022-08-25T05:18:05;2.80;;;2.00;;
13927;SDS011;7036;50.834;4.718;2022-08-25T05:20:34;2.90;;;2.03;;
13927;SDS011;7036;50.834;4.718;2022-08-25T05:22:59;2.20;;;2.00;;
13927;SDS011;7036;50.834;4.718;2022-08-25T05:25:26;2.07;;;1.80;;
13927;SDS011;7036;50.834;4.718;2022-08-25T05:27:53;3.00;;;1.83;;
13927;SDS011;7036;50.834;4.718;2022-08-25T05:30:20;2.63;;;2.00;;
13927;SDS011;7036;50.834;4.718;2022-08-25T05:32:47;2.30;;;1.70;;
13927;SDS011;7036;50.834;4.718;2022-08-25T05:35:13;1.80;;;1.70;;
13927;SDS011;7036;50.834;4.718;2022-08-25T05:37:41;2.33;;;1.80;;
13927;SDS011;7036;50.834;4.718;2022-08-25T05:40:07;2.10;;;1.93;;
13927;SDS011;7036;50.834;4.718;2022-08-25T05:42:34;2.60;;;2.40;;
13927;SDS011;7036;50.834;4.718;2022-08-25T05:45:02;2.10;;;1.90;;
13927;SDS011;7036;50.834;4.718;2022-08-25T05:47:28;2.30;;;2.10;;
13927;SDS011;7036;50.834;4.718;2022-08-25T05:49:55;1.90;;;1.80;;
13927;SDS011;7036;50.834;4.718;2022-08-25T05:52:22;2.47;;;1.87;;
13927;SDS011;7036;50.834;4.718;2022-08-25T05:54:49;2.10;;;1.90;;
13927;SDS011;7036;50.834;4.718;2022-08-25T05:57:16;3.47;;;2.13;;
13927;SDS011;7036;50.834;4.718;2022-08-25T05:59:42;2.30;;;2.10;;
13927;SDS011;7036;50.834;4.718;2022-08-25T06:02:10;1.90;;;1.80;;
13927;SDS011;7036;50.834;4.718;2022-08-25T06:04:54;2.27;;;1.97;;
13927;SDS011;7036;50.834;4.718;2022-08-25T06:07:21;3.20;;;2.03;;
13927;SDS011;7036;50.834;4.718;2022-08-25T06:09:48;2.07;;;1.90;;
13927;SDS011;7036;50.834;4.718;2022-08-25T06:12:15;2.20;;;2.00;;
13927;SDS011;7036;50.834;4.718;2022-08-25T06:14:42;2.77;;;1.93;;
13927;SDS011;7036;50.834;4.718;2022-08-25T06:17:09;2.53;;;2.33;;
13927;SDS011;7036;50.834;4.718;2022-08-25T06:19:36;2.20;;;2.00;;
13927;SDS011;7036;50.834;4.718;2022-08-25T06:22:03;2.40;;;2.20;;
13927;SDS011;7036;50.834;4.718;2022-08-25T06:24:30;5.57;;;2.00;;
13927;SDS011;7036;50.834;4.718;2022-08-25T06:26:57;2.17;;;2.00;;
13927;SDS011;7036;50.834;4.718;2022-08-25T06:29:24;6.37;;;2.00;;
13927;SDS011;7036;50.834;4.718;2022-08-25T06:31:51;3.10;;;2.27;;
13927;SDS011;7036;50.834;4.718;2022-08-25T06:34:19;2.20;;;1.70;;
13927;SDS011;7036;50.834;4.718;2022-08-25T06:36:46;2.20;;;1.50;;
13927;SDS011;7036;50.834;4.718;2022-08-25T06:39:13;2.43;;;2.00;;
13927;SDS011;7036;50.834;4.718;2022-08-25T06:41:40;3.33;;;1.73;;
13927;SDS011;7036;50.834;4.718;2022-08-25T06:44:07;2.17;;;1.97;;
13927;SDS011;7036;50.834;4.718;2022-08-25T06:46:34;3.57;;;2.30;;
13927;SDS011;7036;50.834;4.718;2022-08-25T06:49:01;2.70;;;2.30;;
13927;SDS011;7036;50.834;4.718;2022-08-25T06:51:29;4.93;;;2.30;;
13927;SDS011;7036;50.834;4.718;2022-08-25T06:53:55;3.20;;;2.47;;
13927;SDS011;7036;50.834;4.718;2022-08-25T06:56:22;3.43;;;2.40;;
13927;SDS011;7036;50.834;4.718;2022-08-25T06:58:49;4.13;;;2.13;;
13927;SDS011;7036;50.834;4.718;2022-08-25T07:01:18;3.07;;;2.27;;
13927;SDS011;7036;50.834;4.718;2022-08-25T07:03:44;3.47;;;2.00;;
13927;SDS011;7036;50.834;4.718;2022-08-25T07:06:13;2.67;;;1.93;;
13927;SDS011;7036;50.834;4.718;2022-08-25T07:08:39;4.37;;;2.50;;
13927;SDS011;7036;50.834;4.718;2022-08-25T07:11:06;7.20;;;2.87;;
13927;SDS011;7036;50.834;4.718;2022-08-25T07:13:33;7.13;;;3.03;;
13927;SDS011;7036;50.834;4.718;2022-08-25T07:16:00;9.23;;;2.90;;
13927;SDS011;7036;50.834;4.718;2022-08-25T07:18:28;3.63;;;2.47;;
13927;SDS011;7036;50.834;4.718;2022-08-25T07:20:55;7.60;;;3.03;;
13927;SDS011;7036;50.834;4.718;2022-08-25T07:23:22;5.70;;;3.00;;
13927;SDS011;7036;50.834;4.718;2022-08-25T07:25:49;7.27;;;3.23;;
13927;SDS011;7036;50.834;4.718;2022-08-25T07:28:16;13.67;;;3.17;;
13927;SDS011;7036;50.834;4.718;2022-08-25T07:30:43;5.93;;;2.20;;
13927;SDS011;7036;50.834;4.718;2022-08-25T07:33:10;7.97;;;2.97;;
13927;SDS011;7036;50.834;4.718;2022-08-25T07:35:36;2.20;;;2.00;;
13927;SDS011;7036;50.834;4.718;2022-08-25T07:38:04;5.90;;;2.60;;
13927;SDS011;7036;50.834;4.718;2022-08-25T07:40:32;3.23;;;2.17;;
13927;SDS011;7036;50.834;4.718;2022-08-25T07:43:00;4.30;;;2.70;;
13927;SDS011;7036;50.834;4.718;2022-08-25T07:45:28;10.90;;;2.60;;
13927;SDS011;7036;50.834;4.718;2022-08-25T07:47:52;6.33;;;2.50;;
13927;SDS011;7036;50.834;4.718;2022-08-25T07:50:19;6.60;;;2.53;;
13927;SDS011;7036;50.834;4.718;2022-08-25T07:52:46;2.43;;;2.23;;
13927;SDS011;7036;50.834;4.718;2022-08-25T07:55:14;3.30;;;2.87;;
13927;SDS011;7036;50.834;4.718;2022-08-25T07:57:40;6.03;;;3.13;;
13927;SDS011;7036;50.834;4.718;2022-08-25T08:00:11;8.37;;;3.33;;
13927;SDS011;7036;50.834;4.718;2022-08-25T08:02:38;10.17;;;3.57;;
13927;SDS011;7036;50.834;4.718;2022-08-25T08:05:05;23.17;;;4.37;;
13927;SDS011;7036;50.834;4.718;2022-08-25T08:07:32;21.47;;;4.73;;
13927;SDS011;7036;50.834;4.718;2022-08-25T08:09:59;6.77;;;3.67;;
13927;SDS011;7036;50.834;4.718;2022-08-25T08:12:26;8.83;;;3.80;;
13927;SDS011;7036;50.834;4.718;2022-08-25T08:14:53;9.83;;;3.33;;
13927;SDS011;7036;50.834;4.718;2022-08-25T08:17:19;10.77;;;3.53;;
13927;SDS011;7036;50.834;4.718;2022-08-25T08:19:46;7.17;;;3.47;;
13927;SDS011;7036;50.834;4.718;2022-08-25T08:22:13;12.33;;;4.17;;
13927;SDS011;7036;50.834;4.718;2022-08-25T08:24:41;10.10;;;4.20;;
13927;SDS011;7036;50.834;4.718;2022-08-25T08:27:07;13.33;;;4.70;;
13927;SDS011;7036;50.834;4.718;2022-08-25T08:29:34;11.63;;;4.13;;
13927;SDS011;7036;50.834;4.718;2022-08-25T08:32:02;12.73;;;5.60;;
13927;SDS011;7036;50.834;4.718;2022-08-25T08:34:31;9.53;;;4.37;;
13927;SDS011;7036;50.834;4.718;2022-08-25T08:36:55;12.87;;;4.90;;
13927;SDS011;7036;50.834;4.718;2022-08-25T08:39:22;10.30;;;3.83;;
13927;SDS011;7036;50.834;4.718;2022-08-25T08:47:31;16.63;;;4.77;;
13927;SDS011;7036;50.834;4.718;2022-08-25T08:50:05;13.33;;;4.73;;
13927;SDS011;7036;50.834;4.718;2022-08-25T08:55:14;17.13;;;5.20;;
13927;SDS011;7036;50.834;4.718;2022-08-25T08:57:42;16.00;;;4.70;;
13927;SDS011;7036;50.834;4.718;2022-08-25T09:00:08;9.13;;;4.80;;
13927;SDS011;7036;50.834;4.718;2022-08-25T09:02:37;8.27;;;4.37;;
13927;SDS011;7036;50.834;4.718;2022-08-25T09:05:21;18.27;;;4.60;;
13927;SDS011;7036;50.834;4.718;2022-08-25T09:07:48;16.40;;;5.17;;
13927;SDS011;7036;50.834;4.718;2022-08-25T09:10:15;10.57;;;4.90;;
13927;SDS011;7036;50.834;4.718;2022-08-25T09:15:35;9.87;;;4.30;;
13927;SDS011;7036;50.834;4.718;2022-08-25T09:21:35;12.37;;;3.57;;
13927;SDS011;7036;50.834;4.718;2022-08-25T09:24:09;15.43;;;3.70;;
13927;SDS011;7036;50.834;4.718;2022-08-25T09:26:41;8.00;;;3.43;;
13927;SDS011;7036;50.834;4.718;2022-08-25T09:29:18;7.30;;;3.23;;
13927;SDS011;7036;50.834;4.718;2022-08-25T09:31:41;8.77;;;3.20;;
13927;SDS011;7036;50.834;4.718;2022-08-25T09:34:12;7.43;;;3.20;;
13927;SDS011;7036;50.834;4.718;2022-08-25T09:36:38;9.23;;;3.80;;
13927;SDS011;7036;50.834;4.718;2022-08-25T09:39:05;20.17;;;5.20;;
13927;SDS011;7036;50.834;4.718;2022-08-25T09:41:48;20.63;;;4.57;;
13927;SDS011;7036;50.834;4.718;2022-08-25T09:44:20;17.37;;;4.60;;
13927;SDS011;7036;50.834;4.718;2022-08-25T09:46:54;18.20;;;4.67;;
13927;SDS011;7036;50.834;4.718;2022-08-25T09:49:21;12.07;;;4.43;;
13927;SDS011;7036;50.834;4.718;2022-08-25T09:51:47;11.97;;;4.50;;
13927;SDS011;7036;50.834;4.718;2022-08-25T09:56:55;9.73;;;3.00;;
13927;SDS011;7036;50.834;4.718;2022-08-25T09:59:27;11.03;;;3.07;;
13927;SDS011;7036;50.834;4.718;2022-08-25T10:01:52;11.97;;;3.70;;
13927;SDS011;7036;50.834;4.718;2022-08-25T10:07:05;7.70;;;3.17;;
13927;SDS011;7036;50.834;4.718;2022-08-25T10:09:33;6.37;;;2.93;;
13927;SDS011;7036;50.834;4.718;2022-08-25T10:12:00;8.30;;;3.13;;
13927;SDS011;7036;50.834;4.718;2022-08-25T10:17:14;4.13;;;2.90;;
13927;SDS011;7036;50.834;4.718;2022-08-25T10:19:47;8.13;;;2.63;;
13927;SDS011;7036;50.834;4.718;2022-08-25T10:22:24;5.33;;;3.00;;
13927;SDS011;7036;50.834;4.718;2022-08-25T10:24:49;6.57;;;2.73;;
13927;SDS011;7036;50.834;4.718;2022-08-25T10:27:37;9.73;;;3.17;;
13927;SDS011;7036;50.834;4.718;2022-08-25T10:32:50;9.67;;;2.90;;
13927;SDS011;7036;50.834;4.718;2022-08-25T10:35:23;10.77;;;2.30;;
13927;SDS011;7036;50.834;4.718;2022-08-25T10:37:59;5.07;;;2.50;;
13927;SDS011;7036;50.834;4.718;2022-08-25T10:40:34;4.60;;;2.60;;
13927;SDS011;7036;50.834;4.718;2022-08-25T10:43:24;6.57;;;3.03;;
13927;SDS011;7036;50.834;4.718;2022-08-25T10:46:40;14.57;;;2.53;;
13927;SDS011;7036;50.834;4.718;2022-08-25T10:48:47;8.57;;;2.63;;
13927;SDS011;7036;50.834;4.718;2022-08-25T11:01:38;19.47;;;3.43;;
13927;SDS011;7036;50.834;4.718;2022-08-25T11:04:19;8.37;;;3.77;;
13927;SDS011;7036;50.834;4.718;2022-08-25T11:09:23;8.07;;;3.73;;
13927;SDS011;7036;50.834;4.718;2022-08-25T11:11:59;13.20;;;3.13;;
13927;SDS011;7036;50.834;4.718;2022-08-25T11:14:33;11.10;;;2.57;;
13927;SDS011;7036;50.834;4.718;2022-08-25T11:17:09;10.90;;;3.40;;
13927;SDS011;7036;50.834;4.718;2022-08-25T11:19:43;12.33;;;3.60;;
13927;SDS011;7036;50.834;4.718;2022-08-25T11:22:10;14.27;;;3.80;;
13927;SDS011;7036;50.834;4.718;2022-08-25T11:27:03;14.23;;;2.97;;
13927;SDS011;7036;50.834;4.718;2022-08-25T11:29:30;10.60;;;3.73;;
13927;SDS011;7036;50.834;4.718;2022-08-25T11:31:57;10.00;;;3.93;;
13927;SDS011;7036;50.834;4.718;2022-08-25T11:34:23;11.23;;;3.43;;
13927;SDS011;7036;50.834;4.718;2022-08-25T11:37:00;10.77;;;2.60;;
13927;SDS011;7036;50.834;4.718;2022-08-25T11:45:31;10.30;;;2.57;;
13927;SDS011;7036;50.834;4.718;2022-08-25T11:50:36;8.60;;;3.17;;
13927;SDS011;7036;50.834;4.718;2022-08-25T11:53:25;7.73;;;2.87;;
13927;SDS011;7036;50.834;4.718;2022-08-25T11:55:49;4.57;;;2.37;;
13927;SDS011;7036;50.834;4.718;2022-08-25T12:01:03;9.60;;;2.97;;
13927;SDS011;7036;50.834;4.718;2022-08-25T12:06:19;6.10;;;2.70;;
13927;SDS011;7036;50.834;4.718;2022-08-25T12:08:51;2.87;;;2.33;;
13927;SDS011;7036;50.834;4.718;2022-08-25T12:27:27;4.23;;;2.70;;
13927;SDS011;7036;50.834;4.718;2022-08-25T12:30:12;8.07;;;2.97;;
13927;SDS011;7036;50.834;4.718;2022-08-25T12:35:58;6.03;;;2.67;;
13927;SDS011;7036;50.834;4.718;2022-08-25T12:38:35;4.67;;;3.13;;
13927;SDS011;7036;50.834;4.718;2022-08-25T12:41:12;8.03;;;2.70;;
13927;SDS011;7036;50.834;4.718;2022-08-25T12:43:39;9.93;;;2.83;;
13927;SDS011;7036;50.834;4.718;2022-08-25T12:52:39;10.47;;;2.70;;
13927;SDS011;7036;50.834;4.718;2022-08-25T12:57:36;4.07;;;2.20;;
13927;SDS011;7036;50.834;4.718;2022-08-25T13:00:15;4.43;;;2.60;;
13927;SDS011;7036;50.834;4.718;2022-08-25T13:02:46;8.43;;;2.77;;
13927;SDS011;7036;50.834;4.718;2022-08-25T13:05:21;3.10;;;2.60;;
13927;SDS011;7036;50.834;4.718;2022-08-25T13:08:10;8.33;;;2.63;;
13927;SDS011;7036;50.834;4.718;2022-08-25T13:10:54;3.93;;;2.73;;
13927;SDS011;7036;50.834;4.718;2022-08-25T13:16:25;3.50;;;2.60;;
13927;SDS011;7036;50.834;4.718;2022-08-25T13:18:48;5.00;;;2.83;;
13927;SDS011;7036;50.834;4.718;2022-08-25T13:24:08;8.57;;;3.13;;
13927;SDS011;7036;50.834;4.718;2022-08-25T13:26:31;8.20;;;2.87;;
13927;SDS011;7036;50.834;4.718;2022-08-25T13:28:59;7.47;;;3.20;;
13927;SDS011;7036;50.834;4.718;2022-08-25T13:31:25;4.03;;;2.23;;
13927;SDS011;7036;50.834;4.718;2022-08-25T13:33:52;5.23;;;2.90;;
13927;SDS011;7036;50.834;4.718;2022-08-25T13:36:18;5.97;;;3.17;;
13927;SDS011;7036;50.834;4.718;2022-08-25T13:39:13;10.57;;;3.10;;
13927;SDS011;7036;50.834;4.718;2022-08-25T13:41:44;7.33;;;3.20;;
13927;SDS011;7036;50.834;4.718;2022-08-25T13:44:12;6.57;;;2.90;;
13927;SDS011;7036;50.834;4.718;2022-08-25T13:46:39;12.57;;;4.13;;
13927;SDS011;7036;50.834;4.718;2022-08-25T13:49:06;13.93;;;3.63;;
13927;SDS011;7036;50.834;4.718;2022-08-25T13:51:33;13.00;;;3.77;;
13927;SDS011;7036;50.834;4.718;2022-08-25T13:54:05;14.60;;;3.57;;
13927;SDS011;7036;50.834;4.718;2022-08-25T13:56:33;11.13;;;3.40;;
13927;SDS011;7036;50.834;4.718;2022-08-25T13:59:03;9.30;;;3.70;;
13927;SDS011;7036;50.834;4.718;2022-08-25T14:01:31;7.00;;;3.30;;
13927;SDS011;7036;50.834;4.718;2022-08-25T14:03:57;5.80;;;2.93;;
13927;SDS011;7036;50.834;4.718;2022-08-25T14:06:23;7.20;;;3.43;;
13927;SDS011;7036;50.834;4.718;2022-08-25T14:11:32;11.17;;;3.70;;
13927;SDS011;7036;50.834;4.718;2022-08-25T14:14:07;8.80;;;3.77;;
13927;SDS011;7036;50.834;4.718;2022-08-25T14:16:36;8.67;;;3.90;;
13927;SDS011;7036;50.834;4.718;2022-08-25T14:19:16;7.80;;;3.10;;
13927;SDS011;7036;50.834;4.718;2022-08-25T14:21:41;6.93;;;3.23;;
13927;SDS011;7036;50.834;4.718;2022-08-25T14:24:08;4.23;;;3.00;;
13927;SDS011;7036;50.834;4.718;2022-08-25T14:26:35;6.47;;;2.73;;
13927;SDS011;7036;50.834;4.718;2022-08-25T14:29:02;6.07;;;2.50;;
13927;SDS011;7036;50.834;4.718;2022-08-25T14:31:30;4.80;;;3.10;;
13927;SDS011;7036;50.834;4.718;2022-08-25T14:34:18;8.13;;;2.97;;
13927;SDS011;7036;50.834;4.718;2022-08-25T14:36:29;9.10;;;3.33;;
13927;SDS011;7036;50.834;4.718;2022-08-25T14:38:56;5.10;;;2.80;;
13927;SDS011;7036;50.834;4.718;2022-08-25T14:41:23;6.40;;;3.30;;
13927;SDS011;7036;50.834;4.718;2022-08-25T14:43:50;5.40;;;2.77;;
13927;SDS011;7036;50.834;4.718;2022-08-25T14:46:21;4.03;;;2.60;;
13927;SDS011;7036;50.834;4.718;2022-08-25T14:48:48;6.00;;;2.47;;
13927;SDS011;7036;50.834;4.718;2022-08-25T14:51:13;5.67;;;2.93;;
13927;SDS011;7036;50.834;4.718;2022-08-25T14:53:41;4.67;;;2.50;;
13927;SDS011;7036;50.834;4.718;2022-08-25T14:56:07;3.80;;;2.70;;
13927;SDS011;7036;50.834;4.718;2022-08-25T14:58:34;10.97;;;2.40;;
13927;SDS011;7036;50.834;4.718;2022-08-25T15:01:01;5.37;;;2.47;;
13927;SDS011;7036;50.834;4.718;2022-08-25T15:03:37;3.00;;;2.63;;
13927;SDS011;7036;50.834;4.718;2022-08-25T15:06:01;10.13;;;2.80;;
13927;SDS011;7036;50.834;4.718;2022-08-25T15:08:28;6.57;;;3.20;;
13927;SDS011;7036;50.834;4.718;2022-08-25T15:11:13;9.17;;;3.20;;
13927;SDS011;7036;50.834;4.718;2022-08-25T15:13:40;12.47;;;3.50;;
13927;SDS011;7036;50.834;4.718;2022-08-25T15:16:06;7.27;;;3.20;;
13927;SDS011;7036;50.834;4.718;2022-08-25T15:18:34;8.37;;;3.37;;
13927;SDS011;7036;50.834;4.718;2022-08-25T15:21:00;11.90;;;3.93;;
13927;SDS011;7036;50.834;4.718;2022-08-25T15:23:28;7.67;;;3.07;;
13927;SDS011;7036;50.834;4.718;2022-08-25T15:25:55;7.47;;;3.73;;
13927;SDS011;7036;50.834;4.718;2022-08-25T15:28:21;12.00;;;3.43;;
13927;SDS011;7036;50.834;4.718;2022-08-25T15:30:48;18.60;;;4.07;;
13927;SDS011;7036;50.834;4.718;2022-08-25T15:33:15;10.03;;;3.40;;
13927;SDS011;7036;50.834;4.718;2022-08-25T15:35:42;7.97;;;2.77;;
13927;SDS011;7036;50.834;4.718;2022-08-25T15:38:09;7.70;;;3.30;;
13927;SDS011;7036;50.834;4.718;2022-08-25T15:40:36;5.47;;;3.37;;
13927;SDS011;7036;50.834;4.718;2022-08-25T15:43:03;3.87;;;3.40;;
13927;SDS011;7036;50.834;4.718;2022-08-25T15:45:30;5.57;;;3.50;;
13927;SDS011;7036;50.834;4.718;2022-08-25T15:47:57;4.87;;;3.43;;
13927;SDS011;7036;50.834;4.718;2022-08-25T15:50:23;3.10;;;2.83;;
13927;SDS011;7036;50.834;4.718;2022-08-25T15:52:50;8.47;;;3.53;;
13927;SDS011;7036;50.834;4.718;2022-08-25T15:55:17;5.07;;;3.43;;
13927;SDS011;7036;50.834;4.718;2022-08-25T15:57:45;4.30;;;3.90;;
13927;SDS011;7036;50.834;4.718;2022-08-25T16:00:12;7.60;;;3.87;;
13927;SDS011;7036;50.834;4.718;2022-08-25T16:02:40;5.90;;;3.77;;
13927;SDS011;7036;50.834;4.718;2022-08-25T16:05:07;6.57;;;3.40;;
13927;SDS011;7036;50.834;4.718;2022-08-25T16:07:35;7.87;;;4.13;;
13927;SDS011;7036;50.834;4.718;2022-08-25T16:10:02;5.00;;;3.60;;
13927;SDS011;7036;50.834;4.718;2022-08-25T16:12:28;6.83;;;3.70;;
13927;SDS011;7036;50.834;4.718;2022-08-25T16:14:55;5.77;;;3.93;;
13927;SDS011;7036;50.834;4.718;2022-08-25T16:17:22;5.37;;;3.43;;
13927;SDS011;7036;50.834;4.718;2022-08-25T16:19:49;6.60;;;3.67;;
13927;SDS011;7036;50.834;4.718;2022-08-25T16:22:16;5.87;;;3.80;;
13927;SDS011;7036;50.834;4.718;2022-08-25T16:24:43;9.43;;;5.60;;
13927;SDS011;7036;50.834;4.718;2022-08-25T16:27:11;8.93;;;6.33;;
13927;SDS011;7036;50.834;4.718;2022-08-25T16:29:38;8.57;;;6.97;;
13927;SDS011;7036;50.834;4.718;2022-08-25T16:32:04;12.77;;;6.53;;
13927;SDS011;7036;50.834;4.718;2022-08-25T16:34:32;9.03;;;6.03;;
13927;SDS011;7036;50.834;4.718;2022-08-25T16:36:58;6.77;;;5.80;;
13927;SDS011;7036;50.834;4.718;2022-08-25T16:39:25;8.50;;;6.77;;
13927;SDS011;7036;50.834;4.718;2022-08-25T16:41:52;9.60;;;6.50;;